ADDS TAF Board (Experimental) INFO Settings
IDs: Format: Expanded Condensed

KJFK - New York/Kennedy Int, NY, US

Issued at 1430 UTC 06 Feb 2016
Updated at: 1529 UTC 06 Feb 2016
Time1451Z 06/16Z 06/17Z 06/18Z 06/19Z 06/20Z 06/21Z 06/22Z 06/23Z 07/00Z 07/01Z 07/02Z 07/03Z 07/04Z
Type OBS PRVL PRVL PRVL PRVL PRVL PRVL PRVL PRVL PRVL PRVL PRVL PRVL PRVL
VIS 10 >6 >6 >6 >6 >6 >6 >6 >6 >6 >6 >6 >6 >6
CIG 250 250 250 250 250 250 250 250 250 250 -- -- -- --
Cover BKN BKN BKN BKN BKN BKN BKN BKN BKN BKN SCT SCT SCT SCT
FltCat VFR VFR VFR VFR VFR VFR VFR VFR VFR VFR VFR VFR VFR VFR
WX -- -- -- -- -- -- -- -- -- -- -- -- -- --
WDir 250 260 210 210 210 210 210 210 210 210 230 230 230 230
WSpd 9 8 12 12 12 12 12 12 12 12 7 7 7 7
WGst -- -- -- -- -- -- -- -- -- -- -- -- -- --
R04/22
XWnd 6 6 -0 -0 -0 -0 -0 -0 -0 -0 2 2 2 2
HWnd -7 -5 -12 -12 -12 -12 -12 -12 -12 -12 -7 -7 -7 -7
R13/31
XWnd -7 -5 -12 -12 -12 -12 -12 -12 -12 -12 -7 -7 -7 -7
HWnd -6 -6 0 0 0 0 0 0 0 0 -2 -2 -2 -2

NOTE: TEMPO conditions in [brackets]. Keep in mind TEMPO conditions might be better (lower impact) than prevailing conditions.

Raw TAF
KJFK 061430Z 0615/0718 26008KT P6SM BKN250
  FM061700 21012KT P6SM BKN250
  FM070100 23007KT P6SM SCT250
  FM070800 27004KT P6SM FEW250
  FM071300 VRB05KT P6SM FEW250


Raw METAR
KJFK 061451Z 25009KT 10SM FEW035 BKN250 02/M07 A3046 RMK AO2 SLP313 T00171072 51010 $
KJFK 061351Z 27008KT 10SM FEW035 BKN250 01/M07 A3045 RMK AO2 SLP310 T00061072 $
KJFK 061251Z 27006KT 10SM SCT250 M01/M07 A3044 RMK AO2 SLP307 T10111072

METAR Board
Radar Display
Forecast Discussion

TAF Board Legend

Potential Impact
Threat None Slight Moderate High
Visibility (sm) ≥5.1 5.1>X≥3 3>X≥1 <1
Ceiling (100 ft) ≥30.1 30.1>X≥10 10>X≥5 <5
Wind Speed (kt) <10 10≤X<20 20≤X<30 ≥30
Wind Gust (kt) <15 15≤X<25 25≤X<35 ≥35
Weather No Wx Reported VCTS,-TS,-FZRA,SN TS,FZRA +TS,+FZRA,+SN